createdAt,value
2019-03-20T00:01:27.639Z,6.90
2019-03-20T00:03:57.060Z,7.03
2019-03-20T00:06:26.009Z,6.83
2019-03-20T00:08:59.713Z,7.13
2019-03-20T00:11:29.091Z,7.20
2019-03-20T00:14:00.955Z,8.30
2019-03-20T00:16:45.559Z,8.70
2019-03-20T00:19:21.977Z,8.13
2019-03-20T00:21:51.183Z,8.20
2019-03-20T00:24:26.110Z,7.73
2019-03-20T00:26:55.402Z,9.40
2019-03-20T00:29:30.172Z,9.57
2019-03-20T00:31:59.311Z,10.13
2019-03-20T00:34:29.054Z,10.13
2019-03-20T00:37:00.505Z,10.27
2019-03-20T00:39:32.680Z,10.87
2019-03-20T00:42:01.588Z,12.47
2019-03-20T00:44:32.713Z,12.50
2019-03-20T00:47:02.037Z,12.27
2019-03-20T00:49:30.970Z,12.90
2019-03-20T00:51:59.952Z,12.20
2019-03-20T00:54:33.928Z,13.07
2019-03-20T00:57:02.887Z,13.13
2019-03-20T00:59:32.094Z,12.83
2019-03-20T01:02:00.720Z,13.77
2019-03-20T01:40:53.454Z,14.70
2019-03-20T01:55:03.542Z,14.37
2019-03-20T01:57:44.551Z,14.80
2019-03-20T02:00:13.695Z,15.87
2019-03-20T02:02:44.569Z,15.67
2019-03-20T02:05:17.687Z,15.90
2019-03-20T02:07:49.601Z,15.90
2019-03-20T02:10:21.969Z,14.80
2019-03-20T02:12:50.809Z,16.93
2019-03-20T02:15:19.806Z,16.60
2019-03-20T02:17:48.615Z,15.80
2019-03-20T02:20:17.377Z,16.40
2019-03-20T02:22:57.988Z,16.37
2019-03-20T02:25:34.078Z,16.90
2019-03-20T02:28:03.464Z,17.53
2019-03-20T02:30:32.500Z,17.70
2019-03-20T02:33:01.435Z,16.23
2019-03-20T02:35:31.914Z,17.00
2019-03-20T02:38:00.698Z,16.80
2019-03-20T02:40:34.067Z,17.33
2019-03-20T02:43:13.541Z,19.07
2019-03-20T02:45:46.283Z,18.50
2019-03-20T02:48:18.555Z,18.63
2019-03-20T02:51:00.760Z,19.03
2019-03-20T02:53:47.934Z,19.77
2019-03-20T02:56:18.292Z,20.17
2019-03-20T02:58:47.293Z,19.87
2019-03-20T03:01:16.007Z,20.17
2019-03-20T03:03:47.901Z,21.50
2019-03-20T03:06:17.116Z,21.50
2019-03-20T03:08:49.748Z,21.63
2019-03-20T03:11:22.029Z,21.90
2019-03-20T03:13:53.689Z,21.10
2019-03-20T03:16:38.617Z,21.63
2019-03-20T03:19:12.413Z,22.00
2019-03-20T03:21:44.242Z,22.40
2019-03-20T03:24:13.316Z,22.53
2019-03-20T03:26:47.401Z,22.87
2019-03-20T03:29:24.612Z,22.10
2019-03-20T03:31:59.423Z,22.67
2019-03-20T03:34:30.852Z,23.37
2019-03-20T03:36:59.776Z,25.13
2019-03-20T03:39:29.034Z,24.40
2019-03-20T03:41:58.248Z,25.33
2019-03-20T03:44:27.181Z,24.27
2019-03-20T03:46:56.018Z,27.20
2019-03-20T03:49:31.107Z,26.40
2019-03-20T03:52:00.065Z,27.97
2019-03-20T03:54:28.881Z,26.30
2019-03-20T03:56:57.550Z,28.00
2019-03-20T03:59:26.582Z,29.10
2019-03-20T04:01:55.520Z,29.13
2019-03-20T04:04:24.289Z,26.80
2019-03-20T04:06:54.474Z,27.17
2019-03-20T04:09:23.429Z,27.97
2019-03-20T04:11:58.531Z,25.93
2019-03-20T04:14:28.178Z,25.00
2019-03-20T04:16:57.529Z,21.27
2019-03-20T04:19:29.662Z,22.30
2019-03-20T04:21:59.247Z,22.10
2019-03-20T04:24:28.699Z,22.63
2019-03-20T04:26:57.870Z,24.07
2019-03-20T04:29:26.791Z,23.33
2019-03-20T04:31:55.714Z,24.23
2019-03-20T04:34:24.738Z,21.63
2019-03-20T04:36:53.813Z,19.93
2019-03-20T04:39:22.876Z,19.90
2019-03-20T04:41:51.710Z,18.67
2019-03-20T04:44:21.200Z,18.90
2019-03-20T04:46:49.923Z,19.73
2019-03-20T04:49:21.724Z,19.13
2019-03-20T04:51:50.867Z,17.50
2019-03-20T04:54:19.998Z,18.30
2019-03-20T04:56:49.072Z,16.83
2019-03-20T04:59:18.897Z,18.53
2019-03-20T05:01:48.061Z,17.97
2019-03-20T05:04:20.503Z,17.60
2019-03-20T05:06:58.859Z,17.23
2019-03-20T05:09:24.309Z,18.77
2019-03-20T05:11:53.674Z,18.20
2019-03-20T05:14:22.545Z,20.63
2019-03-20T05:16:57.066Z,20.97
2019-03-20T05:19:26.509Z,21.60
2019-03-20T05:21:55.919Z,22.70
2019-03-20T05:24:28.416Z,22.33
2019-03-20T05:26:57.660Z,20.30
2019-03-20T05:29:27.112Z,20.97
2019-03-20T05:31:55.895Z,21.90
2019-03-20T05:34:24.689Z,20.87
2019-03-20T05:37:10.442Z,23.17
2019-03-20T05:39:39.014Z,24.80
2019-03-20T05:42:19.150Z,26.27
2019-03-20T05:44:48.296Z,28.93
2019-03-20T05:47:17.587Z,31.20
2019-03-20T05:49:52.192Z,31.07
2019-03-20T05:52:23.507Z,30.83
2019-03-20T05:54:52.674Z,30.03
2019-03-20T05:57:24.966Z,30.33
2019-03-20T05:59:55.556Z,30.20
2019-03-20T06:02:27.378Z,29.90
2019-03-20T06:04:59.519Z,30.80
2019-03-20T06:07:31.781Z,28.57
2019-03-20T06:10:01.144Z,30.43
2019-03-20T06:12:30.712Z,29.53
2019-03-20T06:15:24.743Z,29.87
2019-03-20T06:18:00.429Z,30.40
2019-03-20T06:20:34.100Z,29.80
2019-03-20T06:23:06.193Z,29.87
2019-03-20T06:25:40.649Z,30.00
2019-03-20T06:28:10.037Z,29.03
2019-03-20T06:30:43.450Z,30.20
2019-03-20T06:33:12.410Z,30.07
2019-03-20T06:35:41.515Z,29.43
2019-03-20T06:38:21.061Z,30.23
2019-03-20T06:40:49.838Z,30.00
2019-03-20T06:47:28.599Z,26.80
2019-03-20T06:49:51.211Z,28.27
2019-03-20T06:55:31.702Z,28.33
2019-03-20T06:58:43.023Z,28.33
2019-03-20T07:01:36.950Z,28.40
2019-03-20T07:04:34.788Z,28.43
2019-03-20T07:07:15.440Z,28.03
2019-03-20T07:09:49.203Z,28.47
2019-03-20T07:12:18.286Z,29.03
2019-03-20T07:14:50.467Z,28.17
2019-03-20T07:17:20.894Z,27.07
2019-03-20T07:19:50.092Z,26.37
2019-03-20T07:22:30.551Z,24.03
2019-03-20T07:25:00.507Z,25.23
2019-03-20T07:27:29.941Z,26.80
2019-03-20T07:30:02.111Z,27.60
2019-03-20T07:32:31.152Z,26.47
2019-03-20T07:35:04.656Z,27.40
2019-03-20T07:37:36.018Z,27.07
2019-03-20T07:40:08.469Z,26.27
2019-03-20T07:42:49.506Z,24.63
2019-03-20T07:45:30.935Z,26.60
2019-03-20T07:48:21.982Z,25.97
2019-03-20T07:50:49.935Z,23.93
2019-03-20T07:53:24.761Z,24.00
2019-03-20T07:55:53.952Z,24.10
2019-03-20T07:58:26.157Z,24.73
2019-03-20T08:00:58.865Z,23.43
2019-03-20T08:03:28.095Z,21.37
2019-03-20T08:06:09.739Z,21.50
2019-03-20T08:08:41.658Z,19.87
2019-03-20T08:11:12.253Z,21.17
2019-03-20T08:14:08.973Z,20.23
2019-03-20T08:16:40.658Z,19.83
2019-03-20T08:19:12.735Z,19.93
2019-03-20T08:21:46.632Z,19.53
2019-03-20T08:24:21.681Z,19.33
2019-03-20T08:27:07.666Z,19.17
2019-03-20T08:29:49.965Z,18.33
2019-03-20T08:32:21.730Z,18.40
2019-03-20T11:44:11.292Z,9.77
2019-03-20T11:46:39.848Z,11.47
2019-03-20T11:49:24.224Z,10.70
2019-03-20T11:51:53.045Z,9.97
2019-03-20T11:54:21.670Z,10.70
2019-03-20T11:56:50.431Z,10.13
2019-03-20T11:59:18.951Z,9.17
2019-03-20T12:01:47.474Z,8.53
2019-03-20T12:04:16.109Z,9.90
2019-03-20T12:06:44.664Z,10.10
2019-03-20T12:09:13.347Z,10.27
2019-03-20T12:11:46.047Z,9.47
2019-03-20T12:14:15.696Z,9.67
2019-03-20T12:16:44.807Z,10.27
2019-03-20T12:19:13.459Z,9.10
2019-03-20T12:21:42.061Z,9.93
2019-03-20T12:24:10.703Z,9.70
2019-03-20T12:26:39.338Z,9.80
2019-03-20T12:29:08.969Z,9.50
2019-03-20T12:31:37.648Z,8.83
2019-03-20T12:34:06.353Z,9.13
2019-03-20T12:36:35.083Z,8.60
2019-03-20T12:39:05.136Z,8.67
2019-03-20T12:41:33.946Z,8.03
2019-03-20T12:44:02.619Z,9.40
2019-03-20T12:46:41.292Z,8.97
2019-03-20T12:49:01.436Z,9.17
2019-03-20T12:51:36.031Z,8.53
2019-03-20T12:54:15.585Z,8.83
2019-03-20T12:56:44.816Z,10.07
2019-03-20T12:59:16.916Z,8.67
2019-03-20T13:01:46.609Z,9.10
2019-03-20T13:04:16.099Z,8.77
2019-03-20T13:06:45.986Z,8.10
2019-03-20T13:09:21.432Z,8.53
2019-03-20T13:11:50.165Z,8.53
2019-03-20T13:14:19.095Z,8.07
2019-03-20T13:16:47.887Z,8.83
2019-03-20T13:19:16.571Z,8.97
2019-03-20T13:21:45.151Z,8.57
2019-03-20T13:24:13.875Z,9.67
2019-03-20T13:26:43.031Z,8.77
2019-03-20T13:29:13.625Z,8.93
2019-03-20T13:31:42.538Z,8.90
2019-03-20T13:34:11.906Z,8.03
2019-03-20T13:36:41.431Z,8.60
2019-03-20T13:39:09.883Z,8.30
2019-03-20T13:41:38.362Z,8.43
2019-03-20T13:44:07.031Z,8.27
2019-03-20T13:46:35.530Z,9.23
2019-03-20T13:49:04.222Z,8.00
2019-03-20T13:51:32.664Z,8.30
2019-03-20T13:54:01.167Z,8.60
2019-03-20T13:56:29.765Z,8.80
2019-03-20T13:58:58.552Z,8.00
2019-03-20T14:01:27.113Z,8.00
2019-03-20T14:03:55.953Z,7.37
2019-03-20T14:06:24.519Z,8.17
2019-03-20T14:08:54.302Z,6.90
2019-03-20T14:13:59.198Z,8.70
2019-03-20T14:16:27.717Z,9.33
2019-03-20T14:18:56.393Z,8.13
2019-03-20T14:21:25.078Z,7.30
2019-03-20T14:23:53.568Z,7.87
2019-03-20T14:26:24.601Z,8.70
2019-03-20T14:28:53.403Z,7.33
2019-03-20T14:31:22.181Z,6.70
2019-03-20T14:33:51.127Z,7.80
2019-03-20T14:36:19.847Z,6.87
2019-03-20T14:38:48.955Z,7.40
2019-03-20T14:41:21.755Z,7.83
2019-03-20T14:43:48.176Z,9.47
2019-03-20T14:46:16.803Z,7.70
2019-03-20T14:48:48.133Z,7.70
2019-03-20T14:51:16.837Z,8.23
2019-03-20T14:53:45.914Z,8.63
2019-03-20T14:56:14.689Z,8.17
2019-03-20T14:58:44.422Z,8.43
2019-03-20T15:01:13.195Z,6.73
2019-03-20T15:03:41.779Z,8.90
2019-03-20T15:06:10.497Z,9.10
2019-03-20T15:08:39.030Z,9.33
2019-03-20T15:11:07.801Z,8.07
2019-03-20T15:13:39.824Z,9.57
2019-03-20T15:16:10.108Z,12.30
2019-03-20T15:18:38.762Z,11.93
2019-03-20T15:21:07.310Z,9.77
2019-03-20T15:23:36.715Z,9.97
2019-03-20T15:26:05.410Z,11.63
2019-03-20T15:28:34.152Z,10.97
2019-03-20T15:31:03.334Z,12.80
2019-03-20T15:33:32.554Z,11.87
2019-03-20T15:36:02.020Z,11.93
2019-03-20T15:38:31.365Z,12.13
2019-03-20T15:41:00.048Z,11.50
2019-03-20T15:43:28.778Z,11.57
2019-03-20T15:45:57.587Z,11.80
2019-03-20T15:48:26.338Z,13.03
2019-03-20T15:50:55.069Z,12.10
2019-03-20T15:53:26.151Z,11.43
2019-03-20T15:55:55.065Z,11.30
2019-03-20T15:58:23.823Z,10.60
2019-03-20T16:00:52.528Z,10.30
2019-03-20T16:03:21.722Z,9.63
2019-03-20T16:05:51.011Z,9.73
2019-03-20T16:08:29.204Z,9.07
2019-03-20T16:10:53.471Z,9.97
2019-03-20T16:13:22.299Z,7.77
2019-03-20T16:16:02.211Z,9.63
2019-03-20T16:18:34.339Z,9.97
2019-03-20T16:21:03.502Z,10.30
2019-03-20T16:23:35.597Z,10.30
2019-03-20T16:26:10.258Z,10.10
2019-03-20T16:28:38.803Z,9.67
2019-03-20T16:31:11.122Z,9.67
2019-03-20T16:33:39.799Z,8.90
2019-03-20T16:36:12.281Z,10.47
2019-03-20T16:38:44.496Z,13.57
2019-03-20T16:41:22.357Z,12.60
2019-03-20T16:43:51.138Z,13.97
2019-03-20T16:46:19.871Z,13.90
2019-03-20T16:48:50.881Z,14.57
2019-03-20T16:51:22.667Z,12.87
2019-03-20T16:53:51.837Z,13.57
2019-03-20T16:56:20.706Z,12.87
2019-03-20T16:58:55.385Z,15.60
2019-03-20T17:01:35.564Z,15.07
2019-03-20T17:04:02.826Z,13.87
2019-03-20T17:06:35.026Z,13.03
2019-03-20T17:12:04.910Z,13.70
2019-03-20T17:14:33.692Z,11.97
2019-03-20T17:17:02.417Z,10.63
2019-03-20T17:19:41.197Z,11.40
2019-03-20T17:22:13.293Z,11.00
2019-03-20T17:24:42.945Z,9.77
2019-03-20T17:27:11.862Z,10.10
2019-03-20T17:29:41.027Z,11.07
2019-03-20T17:32:22.268Z,11.77
2019-03-20T17:35:14.054Z,11.40
2019-03-20T17:37:54.308Z,12.23
2019-03-20T17:40:24.189Z,13.03
2019-03-20T17:43:04.540Z,12.10
2019-03-20T17:45:36.147Z,12.50
2019-03-20T17:51:31.798Z,12.30
2019-03-20T17:54:42.303Z,9.83
2019-03-20T18:12:10.085Z,13.77
2019-03-20T18:14:51.996Z,11.23
2019-03-20T18:17:21.341Z,10.30
2019-03-20T18:24:01.298Z,7.10
2019-03-20T18:26:32.954Z,7.27
2019-03-20T18:29:07.594Z,7.93
2019-03-20T18:31:45.745Z,8.27
2019-03-20T18:34:10.398Z,8.40
2019-03-20T18:36:39.586Z,8.23
2019-03-20T18:39:27.716Z,8.60
2019-03-20T18:44:39.741Z,8.50
2019-03-20T18:47:30.813Z,7.50
2019-03-20T18:50:01.111Z,7.40
2019-03-20T18:52:31.661Z,7.93
2019-03-20T18:55:00.554Z,9.00
2019-03-20T18:57:29.537Z,8.20
2019-03-20T19:00:02.010Z,9.30
2019-03-20T19:02:31.764Z,8.87
2019-03-20T19:05:07.081Z,8.53
2019-03-20T19:07:43.674Z,9.57
2019-03-20T19:10:13.228Z,9.23
2019-03-20T19:12:42.331Z,9.80
2019-03-20T19:15:23.271Z,9.47
2019-03-20T19:18:01.022Z,9.20
2019-03-20T19:20:43.193Z,9.30
2019-03-20T19:23:40.289Z,9.73
2019-03-20T19:26:31.076Z,9.90
2019-03-20T19:29:15.679Z,10.00
2019-03-20T19:31:48.877Z,10.53
2019-03-20T19:34:26.556Z,11.17
2019-03-20T19:37:19.766Z,10.50
2019-03-20T19:39:59.411Z,11.20
2019-03-20T19:42:41.857Z,11.20
2019-03-20T19:45:19.514Z,9.70
2019-03-20T19:47:56.773Z,9.50
2019-03-20T19:50:26.200Z,7.63
2019-03-20T19:53:24.876Z,7.93
2019-03-20T19:55:58.611Z,8.80
2019-03-20T19:58:49.584Z,8.70
2019-03-20T20:01:21.264Z,9.47
2019-03-20T20:03:54.240Z,8.90
2019-03-20T20:06:25.785Z,9.73
2019-03-20T20:41:17.902Z,11.40
2019-03-20T20:44:24.210Z,12.50
2019-03-20T20:46:56.890Z,12.30
2019-03-20T20:49:28.184Z,14.37
2019-03-20T20:52:00.554Z,12.57
2019-03-20T20:57:25.137Z,13.63
2019-03-20T21:14:49.168Z,14.17
2019-03-20T21:20:25.946Z,12.40
